sensor_id;sensor_type;location;lat;lon;timestamp;P1;durP1;ratioP1;P2;durP2;ratioP2
27889;SDS011;15238;49.082;9.102;2023-04-03T00:00:39;2.08;;;1.42;;
27889;SDS011;15238;49.082;9.102;2023-04-03T00:02:40;3.72;;;1.35;;
27889;SDS011;15238;49.082;9.102;2023-04-03T00:04:40;2.55;;;1.30;;
27889;SDS011;15238;49.082;9.102;2023-04-03T00:06:41;4.15;;;1.10;;
27889;SDS011;15238;49.082;9.102;2023-04-03T00:08:42;2.03;;;1.20;;
27889;SDS011;15238;49.082;9.102;2023-04-03T00:10:43;2.28;;;1.10;;
27889;SDS011;15238;49.082;9.102;2023-04-03T00:12:43;1.15;;;0.80;;
27889;SDS011;15238;49.082;9.102;2023-04-03T00:14:44;2.80;;;1.10;;
27889;SDS011;15238;49.082;9.102;2023-04-03T00:16:44;3.83;;;1.33;;
27889;SDS011;15238;49.082;9.102;2023-04-03T00:18:45;1.77;;;1.20;;
27889;SDS011;15238;49.082;9.102;2023-04-03T00:20:45;3.28;;;1.48;;
27889;SDS011;15238;49.082;9.102;2023-04-03T00:22:46;2.17;;;1.23;;
27889;SDS011;15238;49.082;9.102;2023-04-03T00:24:46;3.30;;;1.10;;
27889;SDS011;15238;49.082;9.102;2023-04-03T00:26:47;3.28;;;1.20;;
27889;SDS011;15238;49.082;9.102;2023-04-03T00:28:48;2.55;;;1.42;;
27889;SDS011;15238;49.082;9.102;2023-04-03T00:30:49;2.90;;;1.45;;
27889;SDS011;15238;49.082;9.102;2023-04-03T00:32:50;2.08;;;1.20;;
27889;SDS011;15238;49.082;9.102;2023-04-03T00:34:52;2.70;;;1.00;;
27889;SDS011;15238;49.082;9.102;2023-04-03T00:36:52;1.60;;;1.10;;
27889;SDS011;15238;49.082;9.102;2023-04-03T00:38:53;4.20;;;1.27;;
27889;SDS011;15238;49.082;9.102;2023-04-03T00:40:53;2.85;;;1.20;;
27889;SDS011;15238;49.082;9.102;2023-04-03T00:42:58;2.08;;;1.20;;
27889;SDS011;15238;49.082;9.102;2023-04-03T00:47:00;1.70;;;1.05;;
27889;SDS011;15238;49.082;9.102;2023-04-03T00:49:03;2.35;;;1.02;;
27889;SDS011;15238;49.082;9.102;2023-04-03T00:51:05;1.33;;;1.00;;
27889;SDS011;15238;49.082;9.102;2023-04-03T00:53:11;1.23;;;0.93;;
27889;SDS011;15238;49.082;9.102;2023-04-03T00:55:15;1.27;;;1.13;;
27889;SDS011;15238;49.082;9.102;2023-04-03T00:57:17;1.63;;;0.90;;
27889;SDS011;15238;49.082;9.102;2023-04-03T00:59:19;1.63;;;1.00;;
27889;SDS011;15238;49.082;9.102;2023-04-03T01:01:26;1.42;;;0.95;;
27889;SDS011;15238;49.082;9.102;2023-04-03T01:03:28;1.70;;;1.20;;
27889;SDS011;15238;49.082;9.102;2023-04-03T01:05:28;4.97;;;1.35;;
27889;SDS011;15238;49.082;9.102;2023-04-03T01:07:29;3.55;;;1.80;;
27889;SDS011;15238;49.082;9.102;2023-04-03T01:09:31;2.13;;;1.52;;
27889;SDS011;15238;49.082;9.102;2023-04-03T01:11:32;5.03;;;1.35;;
27889;SDS011;15238;49.082;9.102;2023-04-03T01:13:33;2.53;;;1.23;;
27889;SDS011;15238;49.082;9.102;2023-04-03T01:15:34;2.28;;;1.40;;
27889;SDS011;15238;49.082;9.102;2023-04-03T01:17:39;2.55;;;1.65;;
27889;SDS011;15238;49.082;9.102;2023-04-03T01:19:42;1.65;;;1.17;;
27889;SDS011;15238;49.082;9.102;2023-04-03T01:22:06;3.72;;;1.40;;
27889;SDS011;15238;49.082;9.102;2023-04-03T01:26:39;2.88;;;1.17;;
27889;SDS011;15238;49.082;9.102;2023-04-03T01:28:39;2.25;;;1.00;;
27889;SDS011;15238;49.082;9.102;2023-04-03T01:31:27;2.33;;;1.30;;
27889;SDS011;15238;49.082;9.102;2023-04-03T01:33:20;4.00;;;1.60;;
27889;SDS011;15238;49.082;9.102;2023-04-03T01:35:20;6.32;;;1.98;;
27889;SDS011;15238;49.082;9.102;2023-04-03T01:37:21;4.60;;;1.45;;
27889;SDS011;15238;49.082;9.102;2023-04-03T01:39:21;2.65;;;1.10;;
27889;SDS011;15238;49.082;9.102;2023-04-03T01:41:22;2.38;;;1.40;;
27889;SDS011;15238;49.082;9.102;2023-04-03T01:43:23;4.13;;;1.50;;
27889;SDS011;15238;49.082;9.102;2023-04-03T01:45:23;2.80;;;1.30;;
27889;SDS011;15238;49.082;9.102;2023-04-03T01:47:24;5.28;;;1.60;;
27889;SDS011;15238;49.082;9.102;2023-04-03T01:49:25;4.15;;;1.27;;
27889;SDS011;15238;49.082;9.102;2023-04-03T01:51:25;3.65;;;1.30;;
27889;SDS011;15238;49.082;9.102;2023-04-03T01:53:26;3.00;;;1.50;;
27889;SDS011;15238;49.082;9.102;2023-04-03T01:55:26;4.30;;;1.08;;
27889;SDS011;15238;49.082;9.102;2023-04-03T01:57:27;1.90;;;1.00;;
27889;SDS011;15238;49.082;9.102;2023-04-03T01:59:27;2.03;;;1.27;;
27889;SDS011;15238;49.082;9.102;2023-04-03T02:01:28;2.03;;;1.33;;
27889;SDS011;15238;49.082;9.102;2023-04-03T02:03:28;2.42;;;1.10;;
27889;SDS011;15238;49.082;9.102;2023-04-03T02:05:29;3.42;;;1.20;;
27889;SDS011;15238;49.082;9.102;2023-04-03T02:07:30;2.67;;;1.40;;
27889;SDS011;15238;49.082;9.102;2023-04-03T02:09:30;3.38;;;1.27;;
27889;SDS011;15238;49.082;9.102;2023-04-03T02:11:31;3.45;;;1.40;;
27889;SDS011;15238;49.082;9.102;2023-04-03T02:13:31;4.40;;;1.25;;
27889;SDS011;15238;49.082;9.102;2023-04-03T02:15:32;3.38;;;1.35;;
27889;SDS011;15238;49.082;9.102;2023-04-03T02:17:32;2.22;;;1.33;;
27889;SDS011;15238;49.082;9.102;2023-04-03T02:19:34;3.25;;;1.33;;
27889;SDS011;15238;49.082;9.102;2023-04-03T02:21:35;2.08;;;1.42;;
27889;SDS011;15238;49.082;9.102;2023-04-03T02:23:36;4.57;;;1.83;;
27889;SDS011;15238;49.082;9.102;2023-04-03T02:25:36;2.25;;;1.42;;
27889;SDS011;15238;49.082;9.102;2023-04-03T02:27:37;3.17;;;1.00;;
27889;SDS011;15238;49.082;9.102;2023-04-03T02:29:38;3.67;;;1.15;;
27889;SDS011;15238;49.082;9.102;2023-04-03T02:31:38;3.10;;;1.25;;
27889;SDS011;15238;49.082;9.102;2023-04-03T02:33:39;1.67;;;1.05;;
27889;SDS011;15238;49.082;9.102;2023-04-03T02:35:40;3.47;;;1.23;;
27889;SDS011;15238;49.082;9.102;2023-04-03T02:37:40;2.67;;;1.10;;
27889;SDS011;15238;49.082;9.102;2023-04-03T02:39:41;3.08;;;1.48;;
27889;SDS011;15238;49.082;9.102;2023-04-03T02:41:41;3.08;;;1.17;;
27889;SDS011;15238;49.082;9.102;2023-04-03T02:43:42;2.58;;;1.30;;
27889;SDS011;15238;49.082;9.102;2023-04-03T02:45:43;1.85;;;1.27;;
27889;SDS011;15238;49.082;9.102;2023-04-03T02:47:43;3.78;;;1.30;;
27889;SDS011;15238;49.082;9.102;2023-04-03T02:49:44;3.13;;;1.20;;
27889;SDS011;15238;49.082;9.102;2023-04-03T02:51:45;2.10;;;0.90;;
27889;SDS011;15238;49.082;9.102;2023-04-03T02:53:47;2.08;;;1.27;;
27889;SDS011;15238;49.082;9.102;2023-04-03T02:55:48;6.45;;;1.25;;
27889;SDS011;15238;49.082;9.102;2023-04-03T02:57:48;4.82;;;1.20;;
27889;SDS011;15238;49.082;9.102;2023-04-03T02:59:49;3.85;;;1.20;;
27889;SDS011;15238;49.082;9.102;2023-04-03T03:01:49;2.40;;;1.20;;
27889;SDS011;15238;49.082;9.102;2023-04-03T03:03:50;1.70;;;1.20;;
27889;SDS011;15238;49.082;9.102;2023-04-03T03:06:00;4.03;;;1.30;;
27889;SDS011;15238;49.082;9.102;2023-04-03T03:08:04;3.53;;;1.30;;
27889;SDS011;15238;49.082;9.102;2023-04-03T03:10:05;3.58;;;1.27;;
27889;SDS011;15238;49.082;9.102;2023-04-03T03:12:06;4.90;;;1.33;;
27889;SDS011;15238;49.082;9.102;2023-04-03T03:14:06;5.55;;;1.95;;
27889;SDS011;15238;49.082;9.102;2023-04-03T03:16:07;2.60;;;1.02;;
27889;SDS011;15238;49.082;9.102;2023-04-03T03:18:08;4.95;;;1.55;;
27889;SDS011;15238;49.082;9.102;2023-04-03T03:20:08;4.25;;;1.35;;
27889;SDS011;15238;49.082;9.102;2023-04-03T03:22:09;4.57;;;1.30;;
27889;SDS011;15238;49.082;9.102;2023-04-03T03:24:10;4.45;;;1.40;;
27889;SDS011;15238;49.082;9.102;2023-04-03T03:26:11;2.28;;;1.20;;
27889;SDS011;15238;49.082;9.102;2023-04-03T03:28:12;2.75;;;1.48;;
27889;SDS011;15238;49.082;9.102;2023-04-03T03:30:13;2.47;;;1.33;;
27889;SDS011;15238;49.082;9.102;2023-04-03T03:32:13;3.75;;;1.50;;
27889;SDS011;15238;49.082;9.102;2023-04-03T03:34:14;3.45;;;1.70;;
27889;SDS011;15238;49.082;9.102;2023-04-03T03:36:15;2.88;;;1.52;;
27889;SDS011;15238;49.082;9.102;2023-04-03T03:38:15;2.70;;;1.48;;
27889;SDS011;15238;49.082;9.102;2023-04-03T03:40:16;3.80;;;1.45;;
27889;SDS011;15238;49.082;9.102;2023-04-03T03:42:17;3.95;;;1.60;;
27889;SDS011;15238;49.082;9.102;2023-04-03T03:44:17;3.15;;;1.33;;
27889;SDS011;15238;49.082;9.102;2023-04-03T03:46:18;4.22;;;1.50;;
27889;SDS011;15238;49.082;9.102;2023-04-03T03:48:19;1.52;;;1.23;;
27889;SDS011;15238;49.082;9.102;2023-04-03T03:50:20;2.58;;;1.45;;
27889;SDS011;15238;49.082;9.102;2023-04-03T03:52:20;3.95;;;1.58;;
27889;SDS011;15238;49.082;9.102;2023-04-03T03:54:21;4.07;;;1.27;;
27889;SDS011;15238;49.082;9.102;2023-04-03T03:56:21;2.47;;;1.15;;
27889;SDS011;15238;49.082;9.102;2023-04-03T03:58:22;7.63;;;1.88;;
27889;SDS011;15238;49.082;9.102;2023-04-03T04:00:23;5.55;;;1.48;;
27889;SDS011;15238;49.082;9.102;2023-04-03T04:02:23;2.67;;;1.40;;
27889;SDS011;15238;49.082;9.102;2023-04-03T04:04:24;2.90;;;1.50;;
27889;SDS011;15238;49.082;9.102;2023-04-03T04:06:24;3.10;;;1.60;;
27889;SDS011;15238;49.082;9.102;2023-04-03T04:08:26;3.30;;;1.38;;
27889;SDS011;15238;49.082;9.102;2023-04-03T04:10:26;8.30;;;1.70;;
27889;SDS011;15238;49.082;9.102;2023-04-03T04:12:27;4.68;;;2.00;;
27889;SDS011;15238;49.082;9.102;2023-04-03T04:14:27;3.53;;;1.42;;
27889;SDS011;15238;49.082;9.102;2023-04-03T04:16:28;5.70;;;1.60;;
27889;SDS011;15238;49.082;9.102;2023-04-03T04:18:28;3.72;;;1.70;;
27889;SDS011;15238;49.082;9.102;2023-04-03T04:20:29;3.28;;;1.42;;
27889;SDS011;15238;49.082;9.102;2023-04-03T04:22:29;4.50;;;1.33;;
27889;SDS011;15238;49.082;9.102;2023-04-03T04:24:30;1.63;;;1.27;;
27889;SDS011;15238;49.082;9.102;2023-04-03T04:26:31;4.80;;;1.67;;
27889;SDS011;15238;49.082;9.102;2023-04-03T04:28:31;3.33;;;1.42;;
27889;SDS011;15238;49.082;9.102;2023-04-03T04:30:32;1.73;;;1.13;;
27889;SDS011;15238;49.082;9.102;2023-04-03T04:32:32;1.88;;;0.95;;
27889;SDS011;15238;49.082;9.102;2023-04-03T04:34:33;2.08;;;1.50;;
27889;SDS011;15238;49.082;9.102;2023-04-03T04:36:34;4.80;;;1.48;;
27889;SDS011;15238;49.082;9.102;2023-04-03T04:38:35;4.28;;;1.52;;
27889;SDS011;15238;49.082;9.102;2023-04-03T04:40:35;3.13;;;1.50;;
27889;SDS011;15238;49.082;9.102;2023-04-03T04:42:37;4.95;;;1.60;;
27889;SDS011;15238;49.082;9.102;2023-04-03T04:44:38;5.10;;;1.70;;
27889;SDS011;15238;49.082;9.102;2023-04-03T04:46:39;3.30;;;1.60;;
27889;SDS011;15238;49.082;9.102;2023-04-03T04:48:40;3.13;;;1.25;;
27889;SDS011;15238;49.082;9.102;2023-04-03T04:50:41;2.63;;;1.60;;
27889;SDS011;15238;49.082;9.102;2023-04-03T04:52:41;4.65;;;1.90;;
27889;SDS011;15238;49.082;9.102;2023-04-03T04:54:42;5.43;;;1.52;;
27889;SDS011;15238;49.082;9.102;2023-04-03T04:56:42;3.50;;;1.58;;
27889;SDS011;15238;49.082;9.102;2023-04-03T04:58:43;2.38;;;1.60;;
27889;SDS011;15238;49.082;9.102;2023-04-03T05:00:43;3.38;;;1.23;;
27889;SDS011;15238;49.082;9.102;2023-04-03T05:02:44;3.78;;;1.90;;
27889;SDS011;15238;49.082;9.102;2023-04-03T05:04:45;2.33;;;1.70;;
27889;SDS011;15238;49.082;9.102;2023-04-03T05:06:45;4.95;;;2.38;;
27889;SDS011;15238;49.082;9.102;2023-04-03T05:08:46;6.50;;;1.85;;
27889;SDS011;15238;49.082;9.102;2023-04-03T05:10:46;2.95;;;1.35;;
27889;SDS011;15238;49.082;9.102;2023-04-03T05:12:47;4.70;;;1.63;;
27889;SDS011;15238;49.082;9.102;2023-04-03T05:14:48;2.50;;;1.40;;
27889;SDS011;15238;49.082;9.102;2023-04-03T05:16:48;2.83;;;1.60;;
27889;SDS011;15238;49.082;9.102;2023-04-03T05:18:52;3.13;;;1.40;;
27889;SDS011;15238;49.082;9.102;2023-04-03T05:20:53;6.65;;;1.45;;
27889;SDS011;15238;49.082;9.102;2023-04-03T05:22:53;2.78;;;1.42;;
27889;SDS011;15238;49.082;9.102;2023-04-03T05:24:54;2.60;;;1.58;;
27889;SDS011;15238;49.082;9.102;2023-04-03T05:26:55;4.53;;;2.10;;
27889;SDS011;15238;49.082;9.102;2023-04-03T05:28:55;2.13;;;1.50;;
27889;SDS011;15238;49.082;9.102;2023-04-03T05:30:57;2.50;;;1.40;;
27889;SDS011;15238;49.082;9.102;2023-04-03T05:32:58;3.05;;;1.42;;
27889;SDS011;15238;49.082;9.102;2023-04-03T05:34:59;2.30;;;1.33;;
27889;SDS011;15238;49.082;9.102;2023-04-03T05:37:00;1.92;;;1.42;;
27889;SDS011;15238;49.082;9.102;2023-04-03T05:39:03;3.03;;;1.45;;
27889;SDS011;15238;49.082;9.102;2023-04-03T05:41:04;2.88;;;1.50;;
27889;SDS011;15238;49.082;9.102;2023-04-03T05:43:04;3.05;;;1.40;;
27889;SDS011;15238;49.082;9.102;2023-04-03T05:45:05;3.47;;;1.70;;
27889;SDS011;15238;49.082;9.102;2023-04-03T05:47:06;2.60;;;1.27;;
27889;SDS011;15238;49.082;9.102;2023-04-03T05:49:06;2.10;;;1.27;;
27889;SDS011;15238;49.082;9.102;2023-04-03T05:51:07;3.25;;;1.48;;
27889;SDS011;15238;49.082;9.102;2023-04-03T05:53:19;2.70;;;1.58;;
27889;SDS011;15238;49.082;9.102;2023-04-03T05:55:22;3.17;;;1.70;;
27889;SDS011;15238;49.082;9.102;2023-04-03T05:57:22;3.33;;;1.60;;
27889;SDS011;15238;49.082;9.102;2023-04-03T05:59:23;15.25;;;2.88;;
27889;SDS011;15238;49.082;9.102;2023-04-03T06:01:24;5.43;;;1.70;;
27889;SDS011;15238;49.082;9.102;2023-04-03T06:03:24;5.63;;;1.45;;
27889;SDS011;15238;49.082;9.102;2023-04-03T06:05:25;5.13;;;1.75;;
27889;SDS011;15238;49.082;9.102;2023-04-03T06:07:27;3.40;;;1.73;;
27889;SDS011;15238;49.082;9.102;2023-04-03T06:09:28;3.85;;;1.48;;
27889;SDS011;15238;49.082;9.102;2023-04-03T06:11:29;5.45;;;1.83;;
27889;SDS011;15238;49.082;9.102;2023-04-03T06:13:30;4.18;;;1.90;;
27889;SDS011;15238;49.082;9.102;2023-04-03T06:15:31;2.55;;;1.70;;
27889;SDS011;15238;49.082;9.102;2023-04-03T06:17:32;2.10;;;1.65;;
27889;SDS011;15238;49.082;9.102;2023-04-03T06:19:32;2.40;;;1.52;;
27889;SDS011;15238;49.082;9.102;2023-04-03T06:21:33;3.08;;;1.77;;
27889;SDS011;15238;49.082;9.102;2023-04-03T06:23:33;3.38;;;2.15;;
27889;SDS011;15238;49.082;9.102;2023-04-03T06:25:34;1.88;;;1.70;;
27889;SDS011;15238;49.082;9.102;2023-04-03T06:27:35;3.95;;;1.92;;
27889;SDS011;15238;49.082;9.102;2023-04-03T06:29:35;5.07;;;1.83;;
27889;SDS011;15238;49.082;9.102;2023-04-03T06:31:37;4.63;;;1.92;;
27889;SDS011;15238;49.082;9.102;2023-04-03T06:33:37;5.80;;;2.03;;
27889;SDS011;15238;49.082;9.102;2023-04-03T06:35:38;2.80;;;2.00;;
27889;SDS011;15238;49.082;9.102;2023-04-03T06:37:39;4.50;;;2.00;;
27889;SDS011;15238;49.082;9.102;2023-04-03T06:39:39;3.60;;;2.13;;
27889;SDS011;15238;49.082;9.102;2023-04-03T06:41:40;3.53;;;2.13;;
27889;SDS011;15238;49.082;9.102;2023-04-03T06:43:40;4.60;;;2.38;;
27889;SDS011;15238;49.082;9.102;2023-04-03T06:45:41;4.35;;;2.03;;
27889;SDS011;15238;49.082;9.102;2023-04-03T06:47:41;3.25;;;1.98;;
27889;SDS011;15238;49.082;9.102;2023-04-03T06:49:42;2.65;;;2.05;;
27889;SDS011;15238;49.082;9.102;2023-04-03T06:51:43;3.00;;;2.05;;
27889;SDS011;15238;49.082;9.102;2023-04-03T06:53:44;3.97;;;2.05;;
27889;SDS011;15238;49.082;9.102;2023-04-03T06:55:45;3.25;;;2.03;;
27889;SDS011;15238;49.082;9.102;2023-04-03T06:57:47;7.13;;;3.10;;
27889;SDS011;15238;49.082;9.102;2023-04-03T06:59:47;3.00;;;2.00;;
27889;SDS011;15238;49.082;9.102;2023-04-03T07:01:48;7.47;;;2.47;;
27889;SDS011;15238;49.082;9.102;2023-04-03T07:03:49;4.03;;;1.77;;
27889;SDS011;15238;49.082;9.102;2023-04-03T07:05:49;4.47;;;2.15;;
27889;SDS011;15238;49.082;9.102;2023-04-03T07:07:50;3.40;;;2.30;;
27889;SDS011;15238;49.082;9.102;2023-04-03T07:09:51;5.10;;;2.45;;
27889;SDS011;15238;49.082;9.102;2023-04-03T07:11:51;3.65;;;1.70;;
27889;SDS011;15238;49.082;9.102;2023-04-03T07:13:52;7.85;;;2.22;;
27889;SDS011;15238;49.082;9.102;2023-04-03T07:15:53;4.57;;;2.25;;
27889;SDS011;15238;49.082;9.102;2023-04-03T07:17:54;4.15;;;2.00;;
27889;SDS011;15238;49.082;9.102;2023-04-03T07:19:55;5.22;;;2.65;;
27889;SDS011;15238;49.082;9.102;2023-04-03T07:21:56;4.43;;;2.42;;
27889;SDS011;15238;49.082;9.102;2023-04-03T07:23:56;3.35;;;2.40;;
27889;SDS011;15238;49.082;9.102;2023-04-03T07:25:57;6.50;;;2.80;;
27889;SDS011;15238;49.082;9.102;2023-04-03T07:27:57;4.25;;;2.35;;
27889;SDS011;15238;49.082;9.102;2023-04-03T07:29:58;3.33;;;2.17;;
27889;SDS011;15238;49.082;9.102;2023-04-03T07:31:58;4.43;;;1.83;;
27889;SDS011;15238;49.082;9.102;2023-04-03T07:33:59;3.58;;;1.88;;
27889;SDS011;15238;49.082;9.102;2023-04-03T07:36:00;7.28;;;2.20;;
27889;SDS011;15238;49.082;9.102;2023-04-03T07:38:01;6.97;;;2.20;;
27889;SDS011;15238;49.082;9.102;2023-04-03T07:40:01;6.22;;;2.20;;
27889;SDS011;15238;49.082;9.102;2023-04-03T07:42:03;5.80;;;2.08;;
27889;SDS011;15238;49.082;9.102;2023-04-03T07:44:04;5.57;;;2.30;;
27889;SDS011;15238;49.082;9.102;2023-04-03T07:46:05;3.75;;;1.95;;
27889;SDS011;15238;49.082;9.102;2023-04-03T07:48:06;3.42;;;1.80;;
27889;SDS011;15238;49.082;9.102;2023-04-03T07:50:07;4.95;;;2.17;;
27889;SDS011;15238;49.082;9.102;2023-04-03T07:52:08;4.53;;;1.95;;
27889;SDS011;15238;49.082;9.102;2023-04-03T07:54:09;4.78;;;2.00;;
27889;SDS011;15238;49.082;9.102;2023-04-03T07:56:09;4.13;;;1.90;;
27889;SDS011;15238;49.082;9.102;2023-04-03T07:58:10;4.10;;;1.90;;
27889;SDS011;15238;49.082;9.102;2023-04-03T08:00:13;4.00;;;1.80;;
27889;SDS011;15238;49.082;9.102;2023-04-03T08:02:13;3.40;;;1.67;;
27889;SDS011;15238;49.082;9.102;2023-04-03T08:04:14;6.70;;;3.47;;
27889;SDS011;15238;49.082;9.102;2023-04-03T08:06:15;5.53;;;2.13;;
27889;SDS011;15238;49.082;9.102;2023-04-03T08:08:16;4.28;;;2.22;;
27889;SDS011;15238;49.082;9.102;2023-04-03T08:10:18;3.30;;;1.70;;
27889;SDS011;15238;49.082;9.102;2023-04-03T08:12:19;3.50;;;1.63;;
27889;SDS011;15238;49.082;9.102;2023-04-03T08:14:20;3.80;;;1.73;;
27889;SDS011;15238;49.082;9.102;2023-04-03T08:16:21;5.03;;;2.00;;
27889;SDS011;15238;49.082;9.102;2023-04-03T08:18:25;5.43;;;1.67;;
27889;SDS011;15238;49.082;9.102;2023-04-03T08:20:27;4.97;;;1.60;;
27889;SDS011;15238;49.082;9.102;2023-04-03T08:22:28;3.28;;;2.15;;
27889;SDS011;15238;49.082;9.102;2023-04-03T08:24:29;4.18;;;1.70;;
27889;SDS011;15238;49.082;9.102;2023-04-03T08:26:30;3.10;;;1.30;;
27889;SDS011;15238;49.082;9.102;2023-04-03T08:28:30;2.75;;;1.63;;
27889;SDS011;15238;49.082;9.102;2023-04-03T08:30:31;5.70;;;1.95;;
27889;SDS011;15238;49.082;9.102;2023-04-03T08:32:33;3.20;;;1.40;;
27889;SDS011;15238;49.082;9.102;2023-04-03T08:34:34;2.70;;;1.60;;
27889;SDS011;15238;49.082;9.102;2023-04-03T08:36:36;4.53;;;2.05;;
27889;SDS011;15238;49.082;9.102;2023-04-03T08:38:37;6.03;;;1.67;;
27889;SDS011;15238;49.082;9.102;2023-04-03T08:40:38;2.25;;;1.60;;
27889;SDS011;15238;49.082;9.102;2023-04-03T08:45:16;4.25;;;1.10;;
27889;SDS011;15238;49.082;9.102;2023-04-03T08:47:30;1.92;;;1.30;;
27889;SDS011;15238;49.082;9.102;2023-04-03T08:49:53;3.85;;;1.52;;
27889;SDS011;15238;49.082;9.102;2023-04-03T08:52:00;2.25;;;1.48;;
27889;SDS011;15238;49.082;9.102;2023-04-03T08:54:06;2.40;;;1.40;;
27889;SDS011;15238;49.082;9.102;2023-04-03T08:56:24;3.47;;;1.50;;
27889;SDS011;15238;49.082;9.102;2023-04-03T08:58:28;8.20;;;1.63;;
27889;SDS011;15238;49.082;9.102;2023-04-03T09:00:39;3.78;;;1.50;;
27889;SDS011;15238;49.082;9.102;2023-04-03T09:02:46;4.20;;;1.40;;
27889;SDS011;15238;49.082;9.102;2023-04-03T09:04:48;4.05;;;1.40;;
27889;SDS011;15238;49.082;9.102;2023-04-03T09:06:50;3.33;;;1.52;;
27889;SDS011;15238;49.082;9.102;2023-04-03T09:11:26;4.28;;;1.50;;
27889;SDS011;15238;49.082;9.102;2023-04-03T09:13:43;4.47;;;1.20;;
27889;SDS011;15238;49.082;9.102;2023-04-03T09:15:54;3.47;;;1.30;;
27889;SDS011;15238;49.082;9.102;2023-04-03T09:18:04;3.30;;;1.20;;
27889;SDS011;15238;49.082;9.102;2023-04-03T09:22:26;3.13;;;1.40;;
27889;SDS011;15238;49.082;9.102;2023-04-03T09:24:31;2.15;;;1.40;;
27889;SDS011;15238;49.082;9.102;2023-04-03T09:26:34;4.07;;;1.83;;
27889;SDS011;15238;49.082;9.102;2023-04-03T09:28:56;4.05;;;1.27;;
27889;SDS011;15238;49.082;9.102;2023-04-03T09:31:00;4.75;;;1.30;;
27889;SDS011;15238;49.082;9.102;2023-04-03T09:33:06;3.65;;;1.80;;
27889;SDS011;15238;49.082;9.102;2023-04-03T09:35:30;3.92;;;1.20;;
27889;SDS011;15238;49.082;9.102;2023-04-03T09:39:53;5.95;;;1.48;;
27889;SDS011;15238;49.082;9.102;2023-04-03T09:41:55;2.97;;;1.08;;
27889;SDS011;15238;49.082;9.102;2023-04-03T09:44:22;3.03;;;1.20;;
27889;SDS011;15238;49.082;9.102;2023-04-03T09:48:29;2.47;;;1.50;;
27889;SDS011;15238;49.082;9.102;2023-04-03T09:50:30;3.03;;;1.23;;
27889;SDS011;15238;49.082;9.102;2023-04-03T09:52:31;2.78;;;1.35;;
27889;SDS011;15238;49.082;9.102;2023-04-03T09:54:34;2.30;;;1.10;;
27889;SDS011;15238;49.082;9.102;2023-04-03T09:56:38;2.65;;;1.25;;
27889;SDS011;15238;49.082;9.102;2023-04-03T09:58:40;2.30;;;1.20;;
27889;SDS011;15238;49.082;9.102;2023-04-03T10:00:42;4.53;;;1.35;;
27889;SDS011;15238;49.082;9.102;2023-04-03T10:02:42;4.80;;;1.58;;
27889;SDS011;15238;49.082;9.102;2023-04-03T10:04:43;2.90;;;1.23;;
27889;SDS011;15238;49.082;9.102;2023-04-03T10:06:50;4.72;;;1.42;;
27889;SDS011;15238;49.082;9.102;2023-04-03T10:09:00;4.20;;;1.98;;
27889;SDS011;15238;49.082;9.102;2023-04-03T10:11:14;3.80;;;2.65;;
27889;SDS011;15238;49.082;9.102;2023-04-03T10:13:17;8.52;;;4.80;;
27889;SDS011;15238;49.082;9.102;2023-04-03T10:15:20;8.10;;;4.53;;
27889;SDS011;15238;49.082;9.102;2023-04-03T10:17:27;3.40;;;1.48;;
27889;SDS011;15238;49.082;9.102;2023-04-03T10:19:43;2.70;;;1.35;;
27889;SDS011;15238;49.082;9.102;2023-04-03T10:22:01;3.65;;;1.55;;
27889;SDS011;15238;49.082;9.102;2023-04-03T10:24:18;6.32;;;1.88;;
27889;SDS011;15238;49.082;9.102;2023-04-03T10:26:34;3.60;;;1.52;;
27889;SDS011;15238;49.082;9.102;2023-04-03T10:31:03;3.80;;;1.20;;
27889;SDS011;15238;49.082;9.102;2023-04-03T10:37:52;2.50;;;1.20;;
27889;SDS011;15238;49.082;9.102;2023-04-03T10:39:59;2.75;;;1.42;;
27889;SDS011;15238;49.082;9.102;2023-04-03T10:42:35;5.27;;;1.40;;
27889;SDS011;15238;49.082;9.102;2023-04-03T10:44:59;6.38;;;1.63;;
27889;SDS011;15238;49.082;9.102;2023-04-03T10:47:12;5.68;;;1.80;;
27889;SDS011;15238;49.082;9.102;2023-04-03T10:49:39;3.75;;;1.42;;
27889;SDS011;15238;49.082;9.102;2023-04-03T10:51:52;5.25;;;1.10;;
27889;SDS011;15238;49.082;9.102;2023-04-03T10:54:28;1.90;;;1.00;;
27889;SDS011;15238;49.082;9.102;2023-04-03T10:56:44;2.33;;;1.13;;
27889;SDS011;15238;49.082;9.102;2023-04-03T10:58:54;3.40;;;1.23;;
27889;SDS011;15238;49.082;9.102;2023-04-03T11:01:02;2.92;;;1.35;;
27889;SDS011;15238;49.082;9.102;2023-04-03T11:03:13;3.15;;;1.20;;
27889;SDS011;15238;49.082;9.102;2023-04-03T11:05:29;5.50;;;1.40;;
27889;SDS011;15238;49.082;9.102;2023-04-03T11:07:38;2.50;;;1.20;;
27889;SDS011;15238;49.082;9.102;2023-04-03T11:09:42;2.25;;;1.10;;
27889;SDS011;15238;49.082;9.102;2023-04-03T11:11:46;2.13;;;1.02;;
27889;SDS011;15238;49.082;9.102;2023-04-03T11:13:54;3.53;;;1.20;;
27889;SDS011;15238;49.082;9.102;2023-04-03T11:16:01;2.83;;;0.98;;
27889;SDS011;15238;49.082;9.102;2023-04-03T11:18:09;3.80;;;1.23;;
27889;SDS011;15238;49.082;9.102;2023-04-03T11:20:17;1.73;;;0.98;;
27889;SDS011;15238;49.082;9.102;2023-04-03T11:24:28;2.90;;;1.08;;
27889;SDS011;15238;49.082;9.102;2023-04-03T11:26:32;4.45;;;0.98;;
27889;SDS011;15238;49.082;9.102;2023-04-03T11:28:38;2.88;;;0.68;;
27889;SDS011;15238;49.082;9.102;2023-04-03T11:30:43;4.65;;;1.02;;
27889;SDS011;15238;49.082;9.102;2023-04-03T11:34:55;2.63;;;1.33;;
27889;SDS011;15238;49.082;9.102;2023-04-03T11:36:59;4.88;;;0.93;;
27889;SDS011;15238;49.082;9.102;2023-04-03T11:39:04;2.92;;;1.10;;
27889;SDS011;15238;49.082;9.102;2023-04-03T11:41:24;2.92;;;1.20;;
27889;SDS011;15238;49.082;9.102;2023-04-03T11:43:29;2.75;;;1.10;;
27889;SDS011;15238;49.082;9.102;2023-04-03T11:45:35;1.80;;;0.70;;
27889;SDS011;15238;49.082;9.102;2023-04-03T11:50:00;5.15;;;1.38;;
27889;SDS011;15238;49.082;9.102;2023-04-03T11:52:08;1.85;;;0.90;;
27889;SDS011;15238;49.082;9.102;2023-04-03T11:54:35;3.78;;;1.10;;
27889;SDS011;15238;49.082;9.102;2023-04-03T11:56:46;2.80;;;1.90;;
27889;SDS011;15238;49.082;9.102;2023-04-03T12:01:12;5.10;;;1.42;;
27889;SDS011;15238;49.082;9.102;2023-04-03T12:05:48;2.60;;;1.25;;
27889;SDS011;15238;49.082;9.102;2023-04-03T12:10:17;2.67;;;1.00;;
27889;SDS011;15238;49.082;9.102;2023-04-03T12:12:28;4.30;;;1.10;;
27889;SDS011;15238;49.082;9.102;2023-04-03T12:23:08;6.38;;;1.20;;
27889;SDS011;15238;49.082;9.102;2023-04-03T12:28:00;3.83;;;1.00;;
27889;SDS011;15238;49.082;9.102;2023-04-03T12:37:03;3.53;;;1.42;;
27889;SDS011;15238;49.082;9.102;2023-04-03T12:41:53;4.13;;;1.05;;
27889;SDS011;15238;49.082;9.102;2023-04-03T12:44:23;3.42;;;1.25;;
27889;SDS011;15238;49.082;9.102;2023-04-03T12:46:46;6.55;;;1.17;;
27889;SDS011;15238;49.082;9.102;2023-04-03T12:48:49;2.75;;;0.90;;
27889;SDS011;15238;49.082;9.102;2023-04-03T12:50:53;1.48;;;0.90;;
27889;SDS011;15238;49.082;9.102;2023-04-03T12:53:06;2.10;;;1.00;;
27889;SDS011;15238;49.082;9.102;2023-04-03T12:55:19;4.72;;;1.20;;
27889;SDS011;15238;49.082;9.102;2023-04-03T12:57:22;4.03;;;1.20;;
27889;SDS011;15238;49.082;9.102;2023-04-03T12:59:25;2.28;;;0.90;;
27889;SDS011;15238;49.082;9.102;2023-04-03T13:01:26;1.92;;;0.88;;
27889;SDS011;15238;49.082;9.102;2023-04-03T13:03:27;3.65;;;1.10;;
27889;SDS011;15238;49.082;9.102;2023-04-03T13:05:28;2.17;;;1.20;;
27889;SDS011;15238;49.082;9.102;2023-04-03T13:07:31;1.95;;;1.20;;
27889;SDS011;15238;49.082;9.102;2023-04-03T13:09:34;2.03;;;1.00;;
27889;SDS011;15238;49.082;9.102;2023-04-03T13:11:36;2.67;;;0.90;;
27889;SDS011;15238;49.082;9.102;2023-04-03T13:13:53;2.92;;;1.40;;
27889;SDS011;15238;49.082;9.102;2023-04-03T13:15:58;3.40;;;0.98;;
27889;SDS011;15238;49.082;9.102;2023-04-03T13:17:59;3.83;;;1.17;;
27889;SDS011;15238;49.082;9.102;2023-04-03T13:20:10;3.13;;;1.77;;
27889;SDS011;15238;49.082;9.102;2023-04-03T13:22:30;2.92;;;0.77;;